sensor_id;sensor_type;location;lat;lon;timestamp;P1;durP1;ratioP1;P2;durP2;ratioP2
18320;SDS011;54904;54.350;18.664;2022-09-27T00:01:21;8.33;;;5.37;;
18320;SDS011;54904;54.350;18.664;2022-09-27T00:03:48;6.80;;;4.40;;
18320;SDS011;54904;54.350;18.664;2022-09-27T00:06:19;6.97;;;4.43;;
18320;SDS011;54904;54.350;18.664;2022-09-27T00:08:50;7.97;;;5.10;;
18320;SDS011;54904;54.350;18.664;2022-09-27T00:11:19;5.23;;;3.93;;
18320;SDS011;54904;54.350;18.664;2022-09-27T00:13:51;7.80;;;4.67;;
18320;SDS011;54904;54.350;18.664;2022-09-27T00:16:19;10.73;;;6.50;;
18320;SDS011;54904;54.350;18.664;2022-09-27T00:18:46;10.20;;;5.97;;
18320;SDS011;54904;54.350;18.664;2022-09-27T00:21:13;8.87;;;5.73;;
18320;SDS011;54904;54.350;18.664;2022-09-27T00:23:43;5.80;;;4.93;;
18320;SDS011;54904;54.350;18.664;2022-09-27T00:26:11;6.10;;;4.70;;
18320;SDS011;54904;54.350;18.664;2022-09-27T00:28:39;6.13;;;4.50;;
18320;SDS011;54904;54.350;18.664;2022-09-27T00:31:10;5.37;;;4.40;;
18320;SDS011;54904;54.350;18.664;2022-09-27T00:33:45;9.30;;;6.27;;
18320;SDS011;54904;54.350;18.664;2022-09-27T00:36:12;7.50;;;5.90;;
18320;SDS011;54904;54.350;18.664;2022-09-27T00:38:39;12.13;;;6.70;;
18320;SDS011;54904;54.350;18.664;2022-09-27T00:41:08;9.17;;;5.93;;
18320;SDS011;54904;54.350;18.664;2022-09-27T00:43:44;9.67;;;6.87;;
18320;SDS011;54904;54.350;18.664;2022-09-27T00:46:13;8.77;;;6.10;;
18320;SDS011;54904;54.350;18.664;2022-09-27T00:48:46;7.80;;;5.20;;
18320;SDS011;54904;54.350;18.664;2022-09-27T00:51:18;6.37;;;4.60;;
18320;SDS011;54904;54.350;18.664;2022-09-27T00:53:47;6.93;;;4.00;;
18320;SDS011;54904;54.350;18.664;2022-09-27T00:56:17;11.20;;;5.80;;
18320;SDS011;54904;54.350;18.664;2022-09-27T00:58:49;5.73;;;4.47;;
18320;SDS011;54904;54.350;18.664;2022-09-27T01:01:20;13.40;;;6.77;;
18320;SDS011;54904;54.350;18.664;2022-09-27T01:03:50;10.73;;;7.47;;
18320;SDS011;54904;54.350;18.664;2022-09-27T01:06:22;8.60;;;6.50;;
18320;SDS011;54904;54.350;18.664;2022-09-27T01:08:49;8.67;;;6.53;;
18320;SDS011;54904;54.350;18.664;2022-09-27T01:11:22;8.30;;;5.90;;
18320;SDS011;54904;54.350;18.664;2022-09-27T01:14:03;5.77;;;4.33;;
18320;SDS011;54904;54.350;18.664;2022-09-27T01:16:53;9.03;;;5.80;;
18320;SDS011;54904;54.350;18.664;2022-09-27T01:19:36;9.20;;;6.53;;
18320;SDS011;54904;54.350;18.664;2022-09-27T01:22:16;7.40;;;5.50;;
18320;SDS011;54904;54.350;18.664;2022-09-27T01:25:02;5.43;;;4.60;;
18320;SDS011;54904;54.350;18.664;2022-09-27T01:30:40;5.90;;;4.30;;
18320;SDS011;54904;54.350;18.664;2022-09-27T01:33:17;5.03;;;4.27;;
18320;SDS011;54904;54.350;18.664;2022-09-27T01:35:58;5.70;;;4.17;;
18320;SDS011;54904;54.350;18.664;2022-09-27T01:38:40;5.53;;;4.33;;
18320;SDS011;54904;54.350;18.664;2022-09-27T01:41:20;9.20;;;6.07;;
18320;SDS011;54904;54.350;18.664;2022-09-27T01:44:24;6.77;;;5.30;;
18320;SDS011;54904;54.350;18.664;2022-09-27T01:47:08;7.87;;;5.87;;
18320;SDS011;54904;54.350;18.664;2022-09-27T01:49:47;8.10;;;5.97;;
18320;SDS011;54904;54.350;18.664;2022-09-27T01:52:21;13.27;;;6.73;;
18320;SDS011;54904;54.350;18.664;2022-09-27T01:54:53;11.70;;;7.03;;
18320;SDS011;54904;54.350;18.664;2022-09-27T01:57:49;7.70;;;5.57;;
18320;SDS011;54904;54.350;18.664;2022-09-27T02:00:25;8.47;;;5.53;;
18320;SDS011;54904;54.350;18.664;2022-09-27T02:02:56;10.23;;;6.87;;
18320;SDS011;54904;54.350;18.664;2022-09-27T02:05:29;12.23;;;7.23;;
18320;SDS011;54904;54.350;18.664;2022-09-27T02:08:09;11.17;;;7.73;;
18320;SDS011;54904;54.350;18.664;2022-09-27T02:10:43;9.33;;;7.00;;
18320;SDS011;54904;54.350;18.664;2022-09-27T02:13:17;16.13;;;8.33;;
18320;SDS011;54904;54.350;18.664;2022-09-27T02:15:51;11.77;;;7.63;;
18320;SDS011;54904;54.350;18.664;2022-09-27T02:18:47;9.00;;;7.20;;
18320;SDS011;54904;54.350;18.664;2022-09-27T02:21:19;11.30;;;7.17;;
18320;SDS011;54904;54.350;18.664;2022-09-27T02:23:49;9.03;;;6.53;;
18320;SDS011;54904;54.350;18.664;2022-09-27T02:26:23;8.70;;;6.47;;
18320;SDS011;54904;54.350;18.664;2022-09-27T02:28:56;7.47;;;5.77;;
18320;SDS011;54904;54.350;18.664;2022-09-27T02:31:32;7.23;;;5.60;;
18320;SDS011;54904;54.350;18.664;2022-09-27T02:34:01;7.63;;;6.30;;
18320;SDS011;54904;54.350;18.664;2022-09-27T02:36:31;9.57;;;6.13;;
18320;SDS011;54904;54.350;18.664;2022-09-27T02:38:59;9.53;;;6.53;;
18320;SDS011;54904;54.350;18.664;2022-09-27T02:41:28;9.93;;;7.23;;
18320;SDS011;54904;54.350;18.664;2022-09-27T02:43:56;10.40;;;6.63;;
18320;SDS011;54904;54.350;18.664;2022-09-27T02:46:37;9.80;;;6.50;;
18320;SDS011;54904;54.350;18.664;2022-09-27T02:49:18;5.77;;;4.83;;
18320;SDS011;54904;54.350;18.664;2022-09-27T02:52:16;4.70;;;4.07;;
18320;SDS011;54904;54.350;18.664;2022-09-27T02:54:52;5.37;;;4.87;;
18320;SDS011;54904;54.350;18.664;2022-09-27T02:57:52;5.60;;;4.80;;
18320;SDS011;54904;54.350;18.664;2022-09-27T03:00:55;6.33;;;4.87;;
18320;SDS011;54904;54.350;18.664;2022-09-27T03:03:50;5.60;;;4.37;;
18320;SDS011;54904;54.350;18.664;2022-09-27T03:06:22;4.33;;;3.93;;
18320;SDS011;54904;54.350;18.664;2022-09-27T03:08:50;3.50;;;3.20;;
18320;SDS011;54904;54.350;18.664;2022-09-27T03:11:17;6.10;;;5.10;;
18320;SDS011;54904;54.350;18.664;2022-09-27T03:13:44;6.17;;;5.20;;
18320;SDS011;54904;54.350;18.664;2022-09-27T03:16:11;4.67;;;4.20;;
18320;SDS011;54904;54.350;18.664;2022-09-27T03:19:06;4.10;;;3.70;;
18320;SDS011;54904;54.350;18.664;2022-09-27T03:22:07;5.87;;;5.00;;
18320;SDS011;54904;54.350;18.664;2022-09-27T03:24:34;4.23;;;3.83;;
18320;SDS011;54904;54.350;18.664;2022-09-27T03:27:01;4.33;;;3.97;;
18320;SDS011;54904;54.350;18.664;2022-09-27T03:29:29;5.10;;;4.60;;
18320;SDS011;54904;54.350;18.664;2022-09-27T03:32:03;7.13;;;4.57;;
18320;SDS011;54904;54.350;18.664;2022-09-27T03:34:53;6.17;;;4.50;;
18320;SDS011;54904;54.350;18.664;2022-09-27T03:37:21;5.17;;;3.93;;
18320;SDS011;54904;54.350;18.664;2022-09-27T03:39:48;3.97;;;3.50;;
18320;SDS011;54904;54.350;18.664;2022-09-27T03:42:15;3.93;;;3.47;;
18320;SDS011;54904;54.350;18.664;2022-09-27T03:44:47;3.77;;;3.40;;
18320;SDS011;54904;54.350;18.664;2022-09-27T03:47:15;3.40;;;3.10;;
18320;SDS011;54904;54.350;18.664;2022-09-27T03:49:44;4.00;;;3.23;;
18320;SDS011;54904;54.350;18.664;2022-09-27T03:52:11;9.00;;;5.77;;
18320;SDS011;54904;54.350;18.664;2022-09-27T03:54:39;11.60;;;6.23;;
18320;SDS011;54904;54.350;18.664;2022-09-27T03:57:07;8.93;;;6.47;;
18320;SDS011;54904;54.350;18.664;2022-09-27T03:59:35;10.00;;;6.73;;
18320;SDS011;54904;54.350;18.664;2022-09-27T04:02:28;8.00;;;6.67;;
18320;SDS011;54904;54.350;18.664;2022-09-27T04:05:13;7.60;;;5.60;;
18320;SDS011;54904;54.350;18.664;2022-09-27T04:07:44;6.03;;;4.70;;
18320;SDS011;54904;54.350;18.664;2022-09-27T04:10:13;5.03;;;4.50;;
18320;SDS011;54904;54.350;18.664;2022-09-27T04:12:42;3.90;;;3.50;;
18320;SDS011;54904;54.350;18.664;2022-09-27T04:15:10;4.47;;;4.00;;
18320;SDS011;54904;54.350;18.664;2022-09-27T04:17:46;4.67;;;3.97;;
18320;SDS011;54904;54.350;18.664;2022-09-27T04:20:39;4.50;;;4.10;;
18320;SDS011;54904;54.350;18.664;2022-09-27T04:23:10;5.17;;;4.30;;
18320;SDS011;54904;54.350;18.664;2022-09-27T04:25:45;5.03;;;4.03;;
18320;SDS011;54904;54.350;18.664;2022-09-27T04:28:20;5.43;;;4.27;;
18320;SDS011;54904;54.350;18.664;2022-09-27T04:30:48;9.03;;;5.33;;
18320;SDS011;54904;54.350;18.664;2022-09-27T04:33:34;6.23;;;5.00;;
18320;SDS011;54904;54.350;18.664;2022-09-27T04:36:05;5.20;;;4.33;;
18320;SDS011;54904;54.350;18.664;2022-09-27T04:39:02;9.03;;;6.97;;
18320;SDS011;54904;54.350;18.664;2022-09-27T04:41:35;14.93;;;7.97;;
18320;SDS011;54904;54.350;18.664;2022-09-27T04:44:02;13.37;;;8.33;;
18320;SDS011;54904;54.350;18.664;2022-09-27T04:46:30;14.13;;;9.07;;
18320;SDS011;54904;54.350;18.664;2022-09-27T04:48:58;15.67;;;9.20;;
18320;SDS011;54904;54.350;18.664;2022-09-27T04:51:28;12.53;;;8.70;;
18320;SDS011;54904;54.350;18.664;2022-09-27T04:53:55;9.07;;;6.73;;
18320;SDS011;54904;54.350;18.664;2022-09-27T04:56:27;16.03;;;10.50;;
18320;SDS011;54904;54.350;18.664;2022-09-27T04:58:56;13.53;;;8.73;;
18320;SDS011;54904;54.350;18.664;2022-09-27T05:01:23;14.00;;;9.90;;
18320;SDS011;54904;54.350;18.664;2022-09-27T05:03:56;11.37;;;8.20;;
18320;SDS011;54904;54.350;18.664;2022-09-27T05:06:24;8.40;;;6.57;;
18320;SDS011;54904;54.350;18.664;2022-09-27T05:08:54;9.20;;;7.07;;
18320;SDS011;54904;54.350;18.664;2022-09-27T05:11:25;11.73;;;8.93;;
18320;SDS011;54904;54.350;18.664;2022-09-27T05:14:17;10.53;;;8.23;;
18320;SDS011;54904;54.350;18.664;2022-09-27T05:17:07;11.53;;;8.33;;
18320;SDS011;54904;54.350;18.664;2022-09-27T05:19:53;7.77;;;6.30;;
18320;SDS011;54904;54.350;18.664;2022-09-27T05:22:46;5.60;;;5.07;;
18320;SDS011;54904;54.350;18.664;2022-09-27T05:25:13;9.00;;;6.67;;
18320;SDS011;54904;54.350;18.664;2022-09-27T05:27:41;10.57;;;7.53;;
18320;SDS011;54904;54.350;18.664;2022-09-27T05:30:10;8.00;;;6.20;;
18320;SDS011;54904;54.350;18.664;2022-09-27T05:32:49;9.17;;;5.87;;
18320;SDS011;54904;54.350;18.664;2022-09-27T05:35:37;14.73;;;9.67;;
18320;SDS011;54904;54.350;18.664;2022-09-27T05:38:12;16.07;;;10.47;;
18320;SDS011;54904;54.350;18.664;2022-09-27T05:40:42;13.83;;;10.27;;
18320;SDS011;54904;54.350;18.664;2022-09-27T05:43:11;11.10;;;8.77;;
18320;SDS011;54904;54.350;18.664;2022-09-27T05:45:41;12.13;;;8.67;;
18320;SDS011;54904;54.350;18.664;2022-09-27T05:48:09;14.83;;;10.63;;
18320;SDS011;54904;54.350;18.664;2022-09-27T05:50:47;16.87;;;11.53;;
18320;SDS011;54904;54.350;18.664;2022-09-27T05:53:15;17.67;;;10.63;;
18320;SDS011;54904;54.350;18.664;2022-09-27T05:55:42;14.13;;;8.80;;
18320;SDS011;54904;54.350;18.664;2022-09-27T05:58:11;15.70;;;10.20;;
18320;SDS011;54904;54.350;18.664;2022-09-27T06:00:48;10.87;;;7.80;;
18320;SDS011;54904;54.350;18.664;2022-09-27T06:03:42;16.33;;;10.40;;
18320;SDS011;54904;54.350;18.664;2022-09-27T06:06:34;20.40;;;12.40;;
18320;SDS011;54904;54.350;18.664;2022-09-27T06:09:02;19.40;;;12.47;;
18320;SDS011;54904;54.350;18.664;2022-09-27T06:11:30;13.93;;;9.43;;
18320;SDS011;54904;54.350;18.664;2022-09-27T06:13:57;16.97;;;11.03;;
18320;SDS011;54904;54.350;18.664;2022-09-27T06:16:27;11.93;;;8.63;;
18320;SDS011;54904;54.350;18.664;2022-09-27T06:18:54;9.63;;;7.07;;
18320;SDS011;54904;54.350;18.664;2022-09-27T06:21:22;17.60;;;10.40;;
18320;SDS011;54904;54.350;18.664;2022-09-27T06:23:54;19.07;;;12.20;;
18320;SDS011;54904;54.350;18.664;2022-09-27T06:26:31;16.80;;;9.93;;
18320;SDS011;54904;54.350;18.664;2022-09-27T06:29:24;18.30;;;11.23;;
18320;SDS011;54904;54.350;18.664;2022-09-27T06:32:00;22.67;;;12.07;;
18320;SDS011;54904;54.350;18.664;2022-09-27T06:34:45;19.27;;;10.83;;
18320;SDS011;54904;54.350;18.664;2022-09-27T06:37:13;12.37;;;7.83;;
18320;SDS011;54904;54.350;18.664;2022-09-27T06:39:40;18.60;;;11.47;;
18320;SDS011;54904;54.350;18.664;2022-09-27T06:42:34;28.90;;;15.77;;
18320;SDS011;54904;54.350;18.664;2022-09-27T06:45:14;25.03;;;13.83;;
18320;SDS011;54904;54.350;18.664;2022-09-27T06:48:01;24.70;;;13.97;;
18320;SDS011;54904;54.350;18.664;2022-09-27T06:50:37;25.53;;;13.67;;
18320;SDS011;54904;54.350;18.664;2022-09-27T06:53:06;36.10;;;18.40;;
18320;SDS011;54904;54.350;18.664;2022-09-27T06:55:35;36.20;;;19.63;;
18320;SDS011;54904;54.350;18.664;2022-09-27T06:58:02;33.03;;;19.13;;
18320;SDS011;54904;54.350;18.664;2022-09-27T07:01:25;36.70;;;21.30;;
18320;SDS011;54904;54.350;18.664;2022-09-27T07:04:13;31.83;;;19.20;;
18320;SDS011;54904;54.350;18.664;2022-09-27T07:06:55;24.87;;;14.23;;
18320;SDS011;54904;54.350;18.664;2022-09-27T07:09:25;20.93;;;12.10;;
18320;SDS011;54904;54.350;18.664;2022-09-27T07:11:52;20.97;;;12.33;;
18320;SDS011;54904;54.350;18.664;2022-09-27T07:14:19;22.57;;;13.47;;
18320;SDS011;54904;54.350;18.664;2022-09-27T07:16:47;31.20;;;18.87;;
18320;SDS011;54904;54.350;18.664;2022-09-27T07:19:17;35.97;;;20.07;;
18320;SDS011;54904;54.350;18.664;2022-09-27T07:21:46;28.83;;;17.07;;
18320;SDS011;54904;54.350;18.664;2022-09-27T07:24:15;28.57;;;17.67;;
18320;SDS011;54904;54.350;18.664;2022-09-27T07:26:46;29.53;;;17.60;;
18320;SDS011;54904;54.350;18.664;2022-09-27T07:29:14;21.47;;;14.30;;
18320;SDS011;54904;54.350;18.664;2022-09-27T07:31:42;31.27;;;19.20;;
18320;SDS011;54904;54.350;18.664;2022-09-27T07:34:11;29.37;;;18.23;;
18320;SDS011;54904;54.350;18.664;2022-09-27T07:36:40;30.30;;;18.80;;
18320;SDS011;54904;54.350;18.664;2022-09-27T07:39:08;21.97;;;13.70;;
18320;SDS011;54904;54.350;18.664;2022-09-27T07:41:38;24.93;;;15.10;;
18320;SDS011;54904;54.350;18.664;2022-09-27T07:44:09;34.93;;;17.83;;
18320;SDS011;54904;54.350;18.664;2022-09-27T07:46:53;22.13;;;13.93;;
18320;SDS011;54904;54.350;18.664;2022-09-27T07:49:27;27.10;;;16.07;;
18320;SDS011;54904;54.350;18.664;2022-09-27T07:52:22;21.57;;;12.67;;
18320;SDS011;54904;54.350;18.664;2022-09-27T07:55:12;21.13;;;13.40;;
18320;SDS011;54904;54.350;18.664;2022-09-27T07:58:02;19.70;;;12.40;;
18320;SDS011;54904;54.350;18.664;2022-09-27T08:00:30;17.83;;;10.07;;
18320;SDS011;54904;54.350;18.664;2022-09-27T08:02:57;24.33;;;14.93;;
18320;SDS011;54904;54.350;18.664;2022-09-27T08:05:24;26.47;;;15.73;;
18320;SDS011;54904;54.350;18.664;2022-09-27T08:07:55;29.53;;;17.33;;
18320;SDS011;54904;54.350;18.664;2022-09-27T08:10:23;30.23;;;17.67;;
18320;SDS011;54904;54.350;18.664;2022-09-27T08:12:56;29.10;;;17.47;;
18320;SDS011;54904;54.350;18.664;2022-09-27T08:15:23;29.67;;;18.23;;
18320;SDS011;54904;54.350;18.664;2022-09-27T08:17:53;29.50;;;18.03;;
18320;SDS011;54904;54.350;18.664;2022-09-27T08:20:28;28.60;;;16.80;;
18320;SDS011;54904;54.350;18.664;2022-09-27T08:23:18;29.27;;;18.03;;
18320;SDS011;54904;54.350;18.664;2022-09-27T08:25:53;27.57;;;17.77;;
18320;SDS011;54904;54.350;18.664;2022-09-27T08:28:26;26.63;;;17.43;;
18320;SDS011;54904;54.350;18.664;2022-09-27T08:31:10;31.10;;;18.37;;
18320;SDS011;54904;54.350;18.664;2022-09-27T08:33:37;22.83;;;14.90;;
18320;SDS011;54904;54.350;18.664;2022-09-27T08:36:09;23.57;;;15.30;;
18320;SDS011;54904;54.350;18.664;2022-09-27T08:38:37;25.60;;;15.53;;
18320;SDS011;54904;54.350;18.664;2022-09-27T08:41:07;22.03;;;13.67;;
18320;SDS011;54904;54.350;18.664;2022-09-27T08:43:40;20.97;;;13.57;;
18320;SDS011;54904;54.350;18.664;2022-09-27T08:46:16;27.90;;;17.00;;
18320;SDS011;54904;54.350;18.664;2022-09-27T08:48:55;26.70;;;17.23;;
18320;SDS011;54904;54.350;18.664;2022-09-27T08:51:31;23.63;;;15.47;;
18320;SDS011;54904;54.350;18.664;2022-09-27T08:54:01;23.43;;;14.57;;
18320;SDS011;54904;54.350;18.664;2022-09-27T08:56:33;25.50;;;15.73;;
18320;SDS011;54904;54.350;18.664;2022-09-27T08:59:03;20.97;;;13.63;;
18320;SDS011;54904;54.350;18.664;2022-09-27T09:01:37;19.10;;;12.70;;
18320;SDS011;54904;54.350;18.664;2022-09-27T09:04:12;15.00;;;10.83;;
18320;SDS011;54904;54.350;18.664;2022-09-27T09:06:47;19.37;;;12.80;;
18320;SDS011;54904;54.350;18.664;2022-09-27T09:09:22;21.23;;;13.53;;
18320;SDS011;54904;54.350;18.664;2022-09-27T09:12:07;21.50;;;13.10;;
18320;SDS011;54904;54.350;18.664;2022-09-27T09:15:11;19.20;;;12.03;;
18320;SDS011;54904;54.350;18.664;2022-09-27T09:17:51;18.27;;;13.13;;
18320;SDS011;54904;54.350;18.664;2022-09-27T09:20:49;15.27;;;10.80;;
18320;SDS011;54904;54.350;18.664;2022-09-27T09:23:27;17.27;;;11.57;;
18320;SDS011;54904;54.350;18.664;2022-09-27T09:26:08;14.87;;;9.57;;
18320;SDS011;54904;54.350;18.664;2022-09-27T09:28:47;18.53;;;11.23;;
18320;SDS011;54904;54.350;18.664;2022-09-27T09:31:26;19.40;;;11.47;;
18320;SDS011;54904;54.350;18.664;2022-09-27T09:34:09;15.50;;;9.93;;
18320;SDS011;54904;54.350;18.664;2022-09-27T09:36:43;16.87;;;11.20;;
18320;SDS011;54904;54.350;18.664;2022-09-27T09:39:14;14.93;;;10.63;;
18320;SDS011;54904;54.350;18.664;2022-09-27T09:41:47;14.63;;;9.40;;
18320;SDS011;54904;54.350;18.664;2022-09-27T09:44:26;14.30;;;9.77;;
18320;SDS011;54904;54.350;18.664;2022-09-27T09:47:00;13.60;;;9.60;;
18320;SDS011;54904;54.350;18.664;2022-09-27T09:49:30;12.70;;;9.07;;
18320;SDS011;54904;54.350;18.664;2022-09-27T09:52:04;14.37;;;9.60;;
18320;SDS011;54904;54.350;18.664;2022-09-27T09:54:36;11.40;;;8.23;;
18320;SDS011;54904;54.350;18.664;2022-09-27T09:57:11;6.40;;;5.55;;
18320;SDS011;54904;54.350;18.664;2022-09-27T09:59:42;17.70;;;9.13;;
18320;SDS011;54904;54.350;18.664;2022-09-27T10:02:16;8.68;;;7.10;;
18320;SDS011;54904;54.350;18.664;2022-09-27T10:04:56;8.45;;;6.90;;
18320;SDS011;54904;54.350;18.664;2022-09-27T10:07:24;9.02;;;7.60;;
18320;SDS011;54904;54.350;18.664;2022-09-27T10:09:53;11.02;;;7.60;;
18320;SDS011;54904;54.350;18.664;2022-09-27T10:12:44;6.97;;;5.32;;
18320;SDS011;54904;54.350;18.664;2022-09-27T10:15:15;9.00;;;7.35;;
18320;SDS011;54904;54.350;18.664;2022-09-27T10:17:45;10.10;;;7.78;;
18320;SDS011;54904;54.350;18.664;2022-09-27T10:20:20;10.10;;;7.55;;
18320;SDS011;54904;54.350;18.664;2022-09-27T10:22:52;11.18;;;8.43;;
18320;SDS011;54904;54.350;18.664;2022-09-27T10:25:46;12.15;;;8.35;;
18320;SDS011;54904;54.350;18.664;2022-09-27T10:28:53;10.25;;;7.32;;
18320;SDS011;54904;54.350;18.664;2022-09-27T10:31:33;8.25;;;6.50;;
18320;SDS011;54904;54.350;18.664;2022-09-27T10:34:16;10.90;;;8.88;;
18320;SDS011;54904;54.350;18.664;2022-09-27T10:37:01;11.50;;;8.57;;
18320;SDS011;54904;54.350;18.664;2022-09-27T10:40:14;11.38;;;8.63;;
18320;SDS011;54904;54.350;18.664;2022-09-27T10:42:50;12.07;;;9.07;;
18320;SDS011;54904;54.350;18.664;2022-09-27T10:45:27;12.75;;;8.98;;
18320;SDS011;54904;54.350;18.664;2022-09-27T10:47:59;7.80;;;6.38;;
18320;SDS011;54904;54.350;18.664;2022-09-27T10:50:36;6.30;;;5.22;;
18320;SDS011;54904;54.350;18.664;2022-09-27T10:53:23;12.60;;;8.90;;
18320;SDS011;54904;54.350;18.664;2022-09-27T10:55:58;10.73;;;8.55;;
18320;SDS011;54904;54.350;18.664;2022-09-27T10:58:26;11.35;;;8.35;;
18320;SDS011;54904;54.350;18.664;2022-09-27T11:00:58;9.77;;;6.35;;
18320;SDS011;54904;54.350;18.664;2022-09-27T11:03:30;13.45;;;7.60;;
18320;SDS011;54904;54.350;18.664;2022-09-27T11:05:58;12.77;;;8.90;;
18320;SDS011;54904;54.350;18.664;2022-09-27T11:08:29;12.30;;;8.48;;
18320;SDS011;54904;54.350;18.664;2022-09-27T11:11:24;10.73;;;8.20;;
18320;SDS011;54904;54.350;18.664;2022-09-27T11:13:57;13.00;;;9.00;;
18320;SDS011;54904;54.350;18.664;2022-09-27T11:16:38;10.68;;;8.07;;
18320;SDS011;54904;54.350;18.664;2022-09-27T11:19:17;10.90;;;8.25;;
18320;SDS011;54904;54.350;18.664;2022-09-27T11:22:00;11.70;;;7.05;;
18320;SDS011;54904;54.350;18.664;2022-09-27T11:24:43;17.52;;;8.30;;
18320;SDS011;54904;54.350;18.664;2022-09-27T11:27:25;11.88;;;7.80;;
18320;SDS011;54904;54.350;18.664;2022-09-27T11:30:06;12.30;;;7.93;;
18320;SDS011;54904;54.350;18.664;2022-09-27T11:32:50;11.45;;;8.45;;
18320;SDS011;54904;54.350;18.664;2022-09-27T11:35:37;13.57;;;8.18;;
18320;SDS011;54904;54.350;18.664;2022-09-27T11:38:20;15.68;;;9.48;;
18320;SDS011;54904;54.350;18.664;2022-09-27T11:40:57;9.32;;;7.55;;
18320;SDS011;54904;54.350;18.664;2022-09-27T11:43:57;12.52;;;9.15;;
18320;SDS011;54904;54.350;18.664;2022-09-27T11:46:42;11.80;;;8.60;;
18320;SDS011;54904;54.350;18.664;2022-09-27T11:52:33;11.43;;;8.27;;
18320;SDS011;54904;54.350;18.664;2022-09-27T11:55:22;10.00;;;7.53;;
18320;SDS011;54904;54.350;18.664;2022-09-27T11:57:59;11.23;;;8.02;;
18320;SDS011;54904;54.350;18.664;2022-09-27T12:00:41;15.80;;;6.55;;
18320;SDS011;54904;54.350;18.664;2022-09-27T12:06:31;12.05;;;8.05;;
18320;SDS011;54904;54.350;18.664;2022-09-27T12:09:10;11.13;;;8.68;;
18320;SDS011;54904;54.350;18.664;2022-09-27T12:11:45;16.05;;;9.68;;
18320;SDS011;54904;54.350;18.664;2022-09-27T12:14:17;11.27;;;9.25;;
18320;SDS011;54904;54.350;18.664;2022-09-27T12:16:49;11.10;;;8.13;;
18320;SDS011;54904;54.350;18.664;2022-09-27T12:19:21;11.02;;;8.88;;
18320;SDS011;54904;54.350;18.664;2022-09-27T12:22:01;14.32;;;9.52;;
18320;SDS011;54904;54.350;18.664;2022-09-27T12:24:36;17.50;;;10.82;;
18320;SDS011;54904;54.350;18.664;2022-09-27T12:27:33;13.98;;;10.70;;
18320;SDS011;54904;54.350;18.664;2022-09-27T12:30:06;13.32;;;9.73;;
18320;SDS011;54904;54.350;18.664;2022-09-27T12:32:42;17.55;;;11.70;;
18320;SDS011;54904;54.350;18.664;2022-09-27T12:35:14;16.23;;;11.57;;
18320;SDS011;54904;54.350;18.664;2022-09-27T12:37:45;16.27;;;10.47;;
18320;SDS011;54904;54.350;18.664;2022-09-27T12:40:18;15.85;;;10.75;;
18320;SDS011;54904;54.350;18.664;2022-09-27T12:42:51;10.73;;;8.10;;
18320;SDS011;54904;54.350;18.664;2022-09-27T12:45:37;16.17;;;10.77;;
18320;SDS011;54904;54.350;18.664;2022-09-27T12:48:15;10.90;;;8.90;;
18320;SDS011;54904;54.350;18.664;2022-09-27T12:50:51;17.10;;;10.70;;
18320;SDS011;54904;54.350;18.664;2022-09-27T12:53:20;15.07;;;10.73;;
18320;SDS011;54904;54.350;18.664;2022-09-27T12:56:04;11.65;;;9.30;;
18320;SDS011;54904;54.350;18.664;2022-09-27T13:02:02;16.48;;;11.07;;
18320;SDS011;54904;54.350;18.664;2022-09-27T13:04:52;15.17;;;10.37;;
18320;SDS011;54904;54.350;18.664;2022-09-27T13:07:34;15.75;;;10.32;;
18320;SDS011;54904;54.350;18.664;2022-09-27T13:10:28;9.07;;;7.70;;
18320;SDS011;54904;54.350;18.664;2022-09-27T13:13:20;13.43;;;9.95;;
18320;SDS011;54904;54.350;18.664;2022-09-27T13:15:52;14.55;;;10.38;;
18320;SDS011;54904;54.350;18.664;2022-09-27T13:18:30;15.80;;;11.32;;
18320;SDS011;54904;54.350;18.664;2022-09-27T13:24:42;15.90;;;10.35;;
18320;SDS011;54904;54.350;18.664;2022-09-27T13:27:40;21.73;;;14.05;;
18320;SDS011;54904;54.350;18.664;2022-09-27T13:33:29;18.33;;;11.77;;
18320;SDS011;54904;54.350;18.664;2022-09-27T13:36:30;14.90;;;10.50;;
18320;SDS011;54904;54.350;18.664;2022-09-27T13:39:03;15.02;;;10.38;;
18320;SDS011;54904;54.350;18.664;2022-09-27T13:42:18;15.38;;;11.02;;
18320;SDS011;54904;54.350;18.664;2022-09-27T13:45:13;13.60;;;10.48;;
18320;SDS011;54904;54.350;18.664;2022-09-27T13:47:47;14.80;;;10.95;;
18320;SDS011;54904;54.350;18.664;2022-09-27T13:50:31;16.63;;;10.98;;
18320;SDS011;54904;54.350;18.664;2022-09-27T13:53:13;14.45;;;10.10;;
18320;SDS011;54904;54.350;18.664;2022-09-27T13:55:48;15.70;;;11.27;;
18320;SDS011;54904;54.350;18.664;2022-09-27T13:58:39;11.40;;;9.25;;
18320;SDS011;54904;54.350;18.664;2022-09-27T14:01:32;13.07;;;9.87;;
18320;SDS011;54904;54.350;18.664;2022-09-27T14:04:04;13.77;;;9.73;;
18320;SDS011;54904;54.350;18.664;2022-09-27T14:06:40;14.40;;;8.48;;
18320;SDS011;54904;54.350;18.664;2022-09-27T14:09:13;12.10;;;9.10;;
18320;SDS011;54904;54.350;18.664;2022-09-27T14:11:47;11.68;;;8.27;;
18320;SDS011;54904;54.350;18.664;2022-09-27T14:14:21;11.20;;;8.43;;
18320;SDS011;54904;54.350;18.664;2022-09-27T14:16:54;10.98;;;7.90;;
18320;SDS011;54904;54.350;18.664;2022-09-27T14:19:25;9.32;;;6.05;;
18320;SDS011;54904;54.350;18.664;2022-09-27T14:21:53;9.30;;;7.13;;
18320;SDS011;54904;54.350;18.664;2022-09-27T14:24:31;9.93;;;6.90;;
18320;SDS011;54904;54.350;18.664;2022-09-27T14:27:18;14.07;;;9.50;;
18320;SDS011;54904;54.350;18.664;2022-09-27T14:29:50;13.90;;;9.20;;
18320;SDS011;54904;54.350;18.664;2022-09-27T14:32:24;13.10;;;8.95;;
18320;SDS011;54904;54.350;18.664;2022-09-27T14:35:04;15.30;;;9.57;;
18320;SDS011;54904;54.350;18.664;2022-09-27T14:37:56;13.48;;;9.65;;
18320;SDS011;54904;54.350;18.664;2022-09-27T14:40:24;14.65;;;9.35;;
18320;SDS011;54904;54.350;18.664;2022-09-27T14:42:52;11.93;;;8.77;;
18320;SDS011;54904;54.350;18.664;2022-09-27T14:45:21;11.48;;;8.82;;
18320;SDS011;54904;54.350;18.664;2022-09-27T14:47:52;12.00;;;8.35;;
18320;SDS011;54904;54.350;18.664;2022-09-27T14:50:22;8.95;;;7.32;;
18320;SDS011;54904;54.350;18.664;2022-09-27T14:52:51;10.90;;;8.40;;
18320;SDS011;54904;54.350;18.664;2022-09-27T14:55:22;10.32;;;7.88;;
18320;SDS011;54904;54.350;18.664;2022-09-27T14:57:52;10.10;;;7.78;;
18320;SDS011;54904;54.350;18.664;2022-09-27T15:00:23;6.78;;;6.07;;
18320;SDS011;54904;54.350;18.664;2022-09-27T15:02:53;7.07;;;5.93;;
18320;SDS011;54904;54.350;18.664;2022-09-27T15:05:25;9.23;;;6.95;;
18320;SDS011;54904;54.350;18.664;2022-09-27T15:07:53;11.50;;;8.20;;
18320;SDS011;54904;54.350;18.664;2022-09-27T15:10:26;11.88;;;8.25;;
18320;SDS011;54904;54.350;18.664;2022-09-27T15:12:55;8.43;;;7.00;;
18320;SDS011;54904;54.350;18.664;2022-09-27T15:15:25;8.05;;;6.32;;
18320;SDS011;54904;54.350;18.664;2022-09-27T15:17:56;10.15;;;7.72;;
18320;SDS011;54904;54.350;18.664;2022-09-27T15:20:25;11.48;;;8.10;;
18320;SDS011;54904;54.350;18.664;2022-09-27T15:22:54;9.70;;;7.63;;
18320;SDS011;54904;54.350;18.664;2022-09-27T15:25:24;9.75;;;7.70;;
18320;SDS011;54904;54.350;18.664;2022-09-27T15:27:59;9.57;;;8.00;;
18320;SDS011;54904;54.350;18.664;2022-09-27T15:30:32;10.30;;;7.88;;
18320;SDS011;54904;54.350;18.664;2022-09-27T15:33:00;8.80;;;6.75;;